createdAt,value
2022-10-22T00:01:29.606Z,8.54
2022-10-22T00:04:34.546Z,8.60
2022-10-22T00:07:38.574Z,8.65
2022-10-22T00:10:41.464Z,8.71
2022-10-22T00:13:43.818Z,8.77
2022-10-22T00:16:46.019Z,8.80
2022-10-22T00:19:48.560Z,8.77
2022-10-22T00:25:53.447Z,8.70
2022-10-22T00:28:55.380Z,8.81
2022-10-22T00:31:57.568Z,8.81
2022-10-22T00:34:59.718Z,8.83
2022-10-22T00:38:02.171Z,8.87
2022-10-22T00:41:04.199Z,8.87
2022-10-22T00:44:07.378Z,8.88
2022-10-22T00:47:09.423Z,8.80
2022-10-22T00:50:22.328Z,8.83
2022-10-22T00:53:29.478Z,8.90
2022-10-22T00:56:32.903Z,8.95
2022-10-22T00:59:35.666Z,8.93
2022-10-22T01:02:38.233Z,8.89
2022-10-22T01:05:45.010Z,8.85
2022-10-22T01:09:18.366Z,8.99
2022-10-22T01:12:35.700Z,8.99
2022-10-22T01:15:50.963Z,9.00
2022-10-22T01:19:14.708Z,9.03
2022-10-22T01:22:58.501Z,9.03
2022-10-22T01:26:07.205Z,9.07
2022-10-22T01:29:51.229Z,9.17
2022-10-22T01:32:58.615Z,9.17
2022-10-22T01:36:01.372Z,9.19
2022-10-22T01:39:04.510Z,9.10
2022-10-22T01:42:06.760Z,9.19
2022-10-22T01:45:15.279Z,9.25
2022-10-22T01:48:54.962Z,9.34
2022-10-22T01:52:21.547Z,9.35
2022-10-22T01:55:35.252Z,9.36
2022-10-22T01:58:55.823Z,9.37
2022-10-22T02:02:24.784Z,9.38
2022-10-22T02:05:32.988Z,9.36
2022-10-22T02:08:36.077Z,9.45
2022-10-22T02:11:38.389Z,9.27
2022-10-22T02:14:43.572Z,9.33
2022-10-22T02:17:46.798Z,9.38
2022-10-22T02:20:49.243Z,9.42
2022-10-22T02:23:51.305Z,9.33
2022-10-22T02:27:24.239Z,9.42
2022-10-22T02:30:28.981Z,9.43
2022-10-22T02:33:35.624Z,9.50
2022-10-22T02:36:45.440Z,9.49
2022-10-22T02:39:51.837Z,9.52
2022-10-22T02:42:54.070Z,9.46
2022-10-22T02:45:56.317Z,9.46
2022-10-22T02:48:58.326Z,9.49
2022-10-22T02:52:01.598Z,9.42
2022-10-22T02:55:04.196Z,9.48
2022-10-22T02:58:06.630Z,9.37
2022-10-22T03:01:10.314Z,9.50
2022-10-22T03:04:14.789Z,9.45
2022-10-22T03:07:16.884Z,9.54
2022-10-22T03:10:19.204Z,9.52
2022-10-22T03:13:21.207Z,9.48
2022-10-22T03:16:23.394Z,9.46
2022-10-22T03:19:25.481Z,9.44
2022-10-22T03:22:29.905Z,9.49
2022-10-22T03:25:34.593Z,9.55
2022-10-22T03:28:37.318Z,9.55
2022-10-22T03:31:39.439Z,9.53
2022-10-22T03:34:41.771Z,9.54
2022-10-22T03:37:43.931Z,9.55
2022-10-22T03:40:46.484Z,9.64
2022-10-22T03:43:51.683Z,9.66
2022-10-22T03:46:57.410Z,9.71
2022-10-22T03:50:02.322Z,9.68
2022-10-22T03:53:04.828Z,9.62
2022-10-22T03:56:10.893Z,9.56
2022-10-22T03:59:13.292Z,9.65
2022-10-22T04:02:15.256Z,9.68
2022-10-22T04:05:17.594Z,9.80
2022-10-22T04:08:19.644Z,9.81
2022-10-22T04:11:22.101Z,9.76
2022-10-22T04:14:24.217Z,9.83
2022-10-22T04:17:26.399Z,9.84
2022-10-22T04:20:28.366Z,9.87
2022-10-22T04:23:30.820Z,9.85
2022-10-22T04:26:33.005Z,9.85
2022-10-22T04:29:35.442Z,9.74
2022-10-22T04:32:37.924Z,9.81
2022-10-22T04:35:40.239Z,9.89
2022-10-22T04:38:43.980Z,9.84
2022-10-22T04:41:46.224Z,9.74
2022-10-22T04:44:48.314Z,9.79
2022-10-22T04:47:50.618Z,9.85
2022-10-22T04:50:52.630Z,9.86
2022-10-22T04:53:55.253Z,9.90
2022-10-22T04:56:57.696Z,9.95
2022-10-22T04:59:59.985Z,10.00
2022-10-22T05:03:02.024Z,10.03
2022-10-22T05:06:04.450Z,10.11
2022-10-22T05:09:15.228Z,10.11
2022-10-22T05:12:17.666Z,10.14
2022-10-22T05:15:19.669Z,10.16
2022-10-22T05:18:22.716Z,10.16
2022-10-22T05:21:24.941Z,10.21
2022-10-22T05:24:28.425Z,10.13
2022-10-22T05:27:30.382Z,10.20
2022-10-22T05:30:32.681Z,10.10
2022-10-22T05:33:35.025Z,10.17
2022-10-22T05:36:37.262Z,10.18
2022-10-22T05:39:40.788Z,10.18
2022-10-22T05:42:43.301Z,10.00
2022-10-22T05:45:45.431Z,10.10
2022-10-22T05:48:56.353Z,10.19
2022-10-22T05:51:58.329Z,10.10
2022-10-22T05:55:00.683Z,10.14
2022-10-22T05:58:04.119Z,10.21
2022-10-22T06:01:15.498Z,10.09
2022-10-22T06:04:18.057Z,10.11
2022-10-22T06:07:20.321Z,10.10
2022-10-22T06:10:22.802Z,10.19
2022-10-22T06:13:25.617Z,10.19
2022-10-22T06:16:29.555Z,10.31
2022-10-22T06:19:31.749Z,10.36
2022-10-22T06:22:33.780Z,10.38
2022-10-22T06:25:36.021Z,10.44
2022-10-22T06:28:38.736Z,10.41
2022-10-22T06:31:41.056Z,10.38
2022-10-22T06:34:43.373Z,10.44
2022-10-22T06:37:47.539Z,10.40
2022-10-22T06:40:49.681Z,10.41
2022-10-22T06:43:52.169Z,10.44
2022-10-22T06:46:54.285Z,10.52
2022-10-22T06:49:56.558Z,10.46
2022-10-22T06:52:58.778Z,10.55
2022-10-22T06:56:11.204Z,10.67
2022-10-22T06:59:13.472Z,10.66
2022-10-22T07:02:15.750Z,10.58
2022-10-22T07:05:17.918Z,10.56
2022-10-22T07:08:20.285Z,10.47
2022-10-22T07:11:27.730Z,10.54
2022-10-22T07:14:30.000Z,10.54
2022-10-22T07:17:32.108Z,10.59
2022-10-22T07:20:34.472Z,10.52
2022-10-22T07:23:36.861Z,10.49
2022-10-22T07:26:39.467Z,10.55
2022-10-22T07:29:41.447Z,10.49
2022-10-22T07:32:43.677Z,10.57
2022-10-22T07:35:45.818Z,10.50
2022-10-22T07:38:53.312Z,10.52
2022-10-22T07:41:55.479Z,10.48
2022-10-22T07:44:57.877Z,10.59
2022-10-22T07:48:00.759Z,10.58
2022-10-22T07:51:04.045Z,10.59
2022-10-22T07:54:06.256Z,10.66
2022-10-22T07:57:08.489Z,10.61
2022-10-22T08:00:11.097Z,10.70
2022-10-22T08:03:17.473Z,10.58
2022-10-22T08:06:19.774Z,10.66
2022-10-22T08:09:22.090Z,10.53
2022-10-22T08:12:24.213Z,10.60
2022-10-22T08:15:27.291Z,10.60
2022-10-22T08:18:29.903Z,10.52
2022-10-22T08:21:32.313Z,10.55
2022-10-22T08:24:34.438Z,10.64
2022-10-22T08:27:37.578Z,10.63
2022-10-22T08:30:40.603Z,10.56
2022-10-22T08:33:43.499Z,10.52
2022-10-22T08:36:45.808Z,10.57
2022-10-22T08:39:48.695Z,10.61
2022-10-22T08:43:19.676Z,10.62
2022-10-22T08:46:34.297Z,10.70
2022-10-22T08:49:41.359Z,10.75
2022-10-22T08:52:49.963Z,10.75
2022-10-22T08:55:54.163Z,10.74
2022-10-22T08:59:03.707Z,10.79
2022-10-22T09:02:35.943Z,10.82
2022-10-22T09:06:01.030Z,10.84
2022-10-22T09:09:15.145Z,10.85
2022-10-22T09:12:20.292Z,10.96
2022-10-22T09:15:22.730Z,11.00
2022-10-22T09:18:31.295Z,11.07
2022-10-22T09:22:10.692Z,11.03
2022-10-22T09:25:31.638Z,11.02
2022-10-22T09:28:33.763Z,10.98
2022-10-22T09:31:36.202Z,11.00
2022-10-22T09:34:38.598Z,11.05
2022-10-22T09:37:50.634Z,11.10
2022-10-22T09:40:55.396Z,11.09
2022-10-22T09:43:58.639Z,11.14
2022-10-22T09:47:05.140Z,11.13
2022-10-22T09:50:18.500Z,11.20
2022-10-22T09:53:22.522Z,11.37
2022-10-22T09:56:37.861Z,11.40
2022-10-22T09:59:42.614Z,11.44
2022-10-22T10:02:45.071Z,11.41
2022-10-22T10:05:49.587Z,11.48
2022-10-22T10:08:52.219Z,11.50
2022-10-22T10:11:54.583Z,11.52
2022-10-22T10:15:14.018Z,11.42
2022-10-22T10:18:54.196Z,11.56
2022-10-22T10:22:02.815Z,11.60
2022-10-22T10:25:40.226Z,11.57
2022-10-22T10:28:52.618Z,11.60
2022-10-22T10:32:30.214Z,11.60
2022-10-22T10:36:04.468Z,11.54
2022-10-22T10:39:13.656Z,11.65
2022-10-22T10:42:33.570Z,11.61
2022-10-22T10:46:05.718Z,11.59
2022-10-22T10:49:11.277Z,11.68
2022-10-22T10:52:31.040Z,11.73
2022-10-22T10:55:41.075Z,11.89
2022-10-22T10:59:00.337Z,11.74
2022-10-22T11:02:03.132Z,11.88
2022-10-22T11:05:08.997Z,11.88
2022-10-22T11:08:20.992Z,11.93
2022-10-22T11:11:41.649Z,11.98
2022-10-22T11:15:03.709Z,12.01
2022-10-22T11:18:27.847Z,12.04
2022-10-22T11:22:00.941Z,12.13
2022-10-22T11:25:16.686Z,12.14
2022-10-22T11:28:37.436Z,12.16
2022-10-22T11:31:40.223Z,12.19
2022-10-22T11:34:47.671Z,12.28
2022-10-22T11:37:50.231Z,12.21
2022-10-22T11:41:17.405Z,12.16
2022-10-22T11:44:25.684Z,12.23
2022-10-22T11:47:33.474Z,12.21
2022-10-22T11:50:41.250Z,12.24
2022-10-22T11:53:43.434Z,12.25
2022-10-22T11:56:45.403Z,12.25
2022-10-22T11:59:52.189Z,12.33
2022-10-22T12:03:17.750Z,12.30
2022-10-22T12:06:23.042Z,12.34
2022-10-22T12:09:30.119Z,12.42
2022-10-22T12:12:36.224Z,12.50
2022-10-22T12:15:48.673Z,12.47
2022-10-22T12:18:57.349Z,12.57
2022-10-22T12:22:10.899Z,12.53
2022-10-22T12:25:20.057Z,12.71
2022-10-22T12:28:22.737Z,12.63
2022-10-22T12:31:25.095Z,12.71
2022-10-22T12:34:27.116Z,12.67
2022-10-22T12:37:29.596Z,12.78
2022-10-22T12:40:35.279Z,12.77
2022-10-22T12:43:39.550Z,12.86
2022-10-22T12:46:42.986Z,12.91
2022-10-22T12:49:49.990Z,12.78
2022-10-22T12:52:55.094Z,12.89
2022-10-22T12:56:01.087Z,12.87
2022-10-22T12:59:25.252Z,12.98
2022-10-22T13:02:29.222Z,13.05
2022-10-22T13:05:38.843Z,13.04
2022-10-22T13:08:41.313Z,13.07
2022-10-22T13:11:54.973Z,13.13
2022-10-22T13:14:57.225Z,13.02
2022-10-22T13:18:03.863Z,13.07
2022-10-22T13:21:06.406Z,13.00
2022-10-22T13:24:23.141Z,13.09
2022-10-22T13:27:28.775Z,13.07
2022-10-22T13:30:33.197Z,13.04
2022-10-22T13:33:40.649Z,13.04
2022-10-22T13:36:42.788Z,13.06
2022-10-22T13:39:44.988Z,13.07
2022-10-22T13:42:47.121Z,12.96
2022-10-22T13:45:53.390Z,12.93
2022-10-22T13:48:56.575Z,12.95
2022-10-22T13:52:00.683Z,12.93
2022-10-22T13:55:14.215Z,12.95
2022-10-22T13:58:19.395Z,12.85
2022-10-22T14:01:25.258Z,12.73
2022-10-22T14:04:27.593Z,12.78
2022-10-22T14:07:29.664Z,12.80
2022-10-22T14:10:32.090Z,12.81
2022-10-22T14:13:34.138Z,12.68
2022-10-22T14:16:37.544Z,12.78
2022-10-22T14:19:39.663Z,12.87
2022-10-22T14:22:41.832Z,12.93
2022-10-22T14:25:44.038Z,12.94
2022-10-22T14:29:08.909Z,13.08
2022-10-22T14:32:19.369Z,13.16
2022-10-22T14:35:22.868Z,13.15
2022-10-22T14:38:25.188Z,13.16
2022-10-22T14:41:29.247Z,13.16
2022-10-22T14:44:31.572Z,13.21
2022-10-22T14:47:34.007Z,13.26
2022-10-22T14:50:36.139Z,13.21
2022-10-22T14:53:38.476Z,13.26
2022-10-22T14:56:40.627Z,13.22
2022-10-22T14:59:43.116Z,13.19
2022-10-22T15:02:45.782Z,13.26
2022-10-22T15:05:53.677Z,13.25
2022-10-22T15:08:55.912Z,13.17
2022-10-22T15:11:59.199Z,13.03
2022-10-22T15:15:01.488Z,12.99
2022-10-22T15:18:04.019Z,13.07
2022-10-22T15:21:18.732Z,13.03
2022-10-22T15:24:21.089Z,13.07
2022-10-22T15:27:23.361Z,13.11
2022-10-22T15:30:25.752Z,13.09
2022-10-22T15:33:28.810Z,13.09
2022-10-22T15:36:31.302Z,13.05
2022-10-22T15:39:33.687Z,12.99
2022-10-22T15:42:37.421Z,13.02
2022-10-22T15:45:40.155Z,12.93
2022-10-22T15:48:42.976Z,12.96
2022-10-22T15:51:45.244Z,12.90
2022-10-22T15:54:48.239Z,12.92
2022-10-22T15:57:57.968Z,12.96
2022-10-22T16:01:10.934Z,12.86
2022-10-22T16:04:14.990Z,12.92
2022-10-22T16:07:19.830Z,12.91
2022-10-22T16:10:25.356Z,12.95
2022-10-22T16:13:27.578Z,12.91
2022-10-22T16:16:31.917Z,12.94
2022-10-22T16:19:34.278Z,12.89
2022-10-22T16:22:36.350Z,12.94
2022-10-22T16:25:39.883Z,12.86
2022-10-22T16:28:42.701Z,12.86
2022-10-22T16:31:45.541Z,12.88
2022-10-22T16:34:47.565Z,12.87
2022-10-22T16:37:49.765Z,12.89
2022-10-22T16:40:51.762Z,12.84
2022-10-22T16:43:55.534Z,12.88
2022-10-22T16:46:57.670Z,12.82
2022-10-22T16:50:00.909Z,12.80
2022-10-22T16:53:03.251Z,12.87
2022-10-22T16:56:08.974Z,12.78
2022-10-22T16:59:11.448Z,12.80
2022-10-22T17:02:14.368Z,12.87
2022-10-22T17:05:17.215Z,12.88
2022-10-22T17:08:20.272Z,12.94
2022-10-22T17:11:23.897Z,12.90
2022-10-22T17:14:28.326Z,12.90
2022-10-22T17:17:31.730Z,12.88
2022-10-22T17:20:34.290Z,12.89
2022-10-22T17:23:36.791Z,12.92
2022-10-22T17:26:39.723Z,12.85
2022-10-22T17:29:42.397Z,12.95
2022-10-22T17:32:45.162Z,12.90
2022-10-22T17:35:49.479Z,12.88
2022-10-22T17:38:54.307Z,12.80
2022-10-22T17:41:56.412Z,12.82
2022-10-22T17:44:58.641Z,12.68
2022-10-22T17:48:01.472Z,12.84
2022-10-22T17:51:11.720Z,12.86
2022-10-22T17:54:14.335Z,12.87
2022-10-22T17:57:16.548Z,12.84
2022-10-22T18:03:23.167Z,12.80
2022-10-22T18:06:25.268Z,12.82
2022-10-22T18:09:27.566Z,12.85
2022-10-22T18:12:29.648Z,12.88
2022-10-22T18:15:33.567Z,12.81
2022-10-22T18:18:36.390Z,12.87
2022-10-22T18:21:38.748Z,12.80
2022-10-22T18:24:40.984Z,12.83
2022-10-22T18:27:43.764Z,12.88
2022-10-22T18:30:47.690Z,12.87
2022-10-22T18:33:50.195Z,12.80
2022-10-22T18:36:52.475Z,12.80
2022-10-22T18:39:54.890Z,12.82
2022-10-22T18:42:57.687Z,12.85
2022-10-22T18:46:00.612Z,12.85
2022-10-22T18:49:02.728Z,12.74
2022-10-22T18:52:05.403Z,12.81
2022-10-22T18:55:08.425Z,12.86
2022-10-22T18:58:11.113Z,12.91
2022-10-22T19:01:19.133Z,12.92
2022-10-22T19:04:22.079Z,12.93
2022-10-22T19:07:24.127Z,12.90
2022-10-22T19:10:26.851Z,12.92
2022-10-22T19:13:29.124Z,12.94
2022-10-22T19:16:31.664Z,12.93
2022-10-22T19:19:33.854Z,12.84
2022-10-22T19:22:36.274Z,12.83
2022-10-22T19:25:38.528Z,12.86
2022-10-22T19:28:41.585Z,12.84
2022-10-22T19:31:44.361Z,12.75
2022-10-22T19:34:47.333Z,12.90
2022-10-22T19:37:49.692Z,12.89
2022-10-22T19:40:52.194Z,12.87
2022-10-22T19:43:55.243Z,12.79
2022-10-22T19:46:58.061Z,12.85
2022-10-22T19:50:00.289Z,12.85
2022-10-22T19:53:02.811Z,12.86
2022-10-22T19:56:07.392Z,12.86
2022-10-22T19:59:09.893Z,12.87
2022-10-22T20:02:16.909Z,12.93
2022-10-22T20:05:19.494Z,12.93
2022-10-22T20:08:21.729Z,12.97
2022-10-22T20:11:27.600Z,12.96
2022-10-22T20:14:30.024Z,12.94
2022-10-22T20:17:32.512Z,12.93
2022-10-22T20:20:37.953Z,12.89
2022-10-22T20:23:40.535Z,12.88
2022-10-22T20:26:45.529Z,12.89
2022-10-22T20:29:47.867Z,12.82
2022-10-22T20:32:50.074Z,12.89
2022-10-22T20:36:00.157Z,12.81
2022-10-22T20:39:06.399Z,12.80
2022-10-22T20:42:08.863Z,12.88
2022-10-22T20:45:11.198Z,12.91
2022-10-22T20:48:13.980Z,12.95
2022-10-22T20:51:16.181Z,12.99
2022-10-22T20:54:20.171Z,12.97
2022-10-22T20:57:23.154Z,13.07
2022-10-22T21:00:25.460Z,12.96
2022-10-22T21:03:27.700Z,13.02
2022-10-22T21:06:30.224Z,12.95
2022-10-22T21:09:34.684Z,12.88
2022-10-22T21:12:41.890Z,12.93
2022-10-22T21:15:44.356Z,12.93
2022-10-22T21:18:47.023Z,12.93
2022-10-22T21:21:49.901Z,12.98
2022-10-22T21:24:52.363Z,12.93
2022-10-22T21:27:54.518Z,13.11
2022-10-22T21:30:56.927Z,13.02
2022-10-22T21:33:58.998Z,13.09
2022-10-22T21:37:01.182Z,13.12
2022-10-22T21:40:04.399Z,13.02
2022-10-22T21:43:06.698Z,12.97
2022-10-22T21:46:17.276Z,12.99
2022-10-22T21:49:19.661Z,13.02
2022-10-22T21:52:21.709Z,13.06
2022-10-22T21:55:24.017Z,13.07
2022-10-22T21:58:26.048Z,13.08
2022-10-22T22:01:28.395Z,12.97
2022-10-22T22:04:30.550Z,13.04
2022-10-22T22:07:33.102Z,13.03
2022-10-22T22:10:35.161Z,13.05
2022-10-22T22:13:37.525Z,13.12
2022-10-22T22:16:39.567Z,13.07
2022-10-22T22:19:41.930Z,12.96
2022-10-22T22:22:44.409Z,13.01
2022-10-22T22:25:46.797Z,13.00
2022-10-22T22:28:49.374Z,13.05
2022-10-22T22:31:51.626Z,13.09
2022-10-22T22:34:53.711Z,13.08
2022-10-22T22:37:56.010Z,13.06
2022-10-22T22:41:01.498Z,12.99
2022-10-22T22:44:04.159Z,13.02
2022-10-22T22:47:06.583Z,13.06
2022-10-22T22:50:08.898Z,13.02
2022-10-22T22:53:10.949Z,12.97
2022-10-22T22:56:16.264Z,12.98
2022-10-22T22:59:18.342Z,12.95
2022-10-22T23:02:20.768Z,13.05
2022-10-22T23:05:23.085Z,13.04
2022-10-22T23:08:25.402Z,12.98
2022-10-22T23:11:28.433Z,13.04
2022-10-22T23:14:30.799Z,13.04
2022-10-22T23:17:32.943Z,13.08
2022-10-22T23:20:38.024Z,13.10
2022-10-22T23:23:43.778Z,13.15
2022-10-22T23:26:48.152Z,13.19
2022-10-22T23:29:50.524Z,13.15
2022-10-22T23:32:52.906Z,13.19
2022-10-22T23:35:55.422Z,13.25
2022-10-22T23:38:57.713Z,13.26
2022-10-22T23:41:59.866Z,13.32
2022-10-22T23:45:02.178Z,13.29
2022-10-22T23:48:04.427Z,13.28
2022-10-22T23:51:12.120Z,13.30
2022-10-22T23:54:15.745Z,13.35
2022-10-22T23:57:18.178Z,13.33
